sensor_id;sensor_type;location;lat;lon;timestamp;temperature;humidity
23591;DHT22;11973;52.098;7.582;2023-05-07T04:00:46;14.40;97.00
23591;DHT22;11973;52.098;7.582;2023-05-07T04:03:25;14.40;97.00
23591;DHT22;11973;52.098;7.582;2023-05-07T04:05:52;14.40;97.00
23591;DHT22;11973;52.098;7.582;2023-05-07T04:08:18;14.40;97.00
23591;DHT22;11973;52.098;7.582;2023-05-07T04:10:47;14.40;97.00
23591;DHT22;11973;52.098;7.582;2023-05-07T04:13:13;14.40;97.00
23591;DHT22;11973;52.098;7.582;2023-05-07T04:15:38;14.40;97.00
23591;DHT22;11973;52.098;7.582;2023-05-07T04:18:08;14.40;97.00
23591;DHT22;11973;52.098;7.582;2023-05-07T04:20:35;14.40;97.00
23591;DHT22;11973;52.098;7.582;2023-05-07T04:23:03;14.30;97.00
23591;DHT22;11973;52.098;7.582;2023-05-07T04:25:30;14.30;96.90
23591;DHT22;11973;52.098;7.582;2023-05-07T04:28:02;14.30;96.90
23591;DHT22;11973;52.098;7.582;2023-05-07T04:30:29;14.30;97.00
23591;DHT22;11973;52.098;7.582;2023-05-07T04:32:55;14.30;97.00
23591;DHT22;11973;52.098;7.582;2023-05-07T04:35:26;14.30;97.00
23591;DHT22;11973;52.098;7.582;2023-05-07T04:37:52;14.30;97.00
23591;DHT22;11973;52.098;7.582;2023-05-07T04:40:18;14.30;97.00
23591;DHT22;11973;52.098;7.582;2023-05-07T04:42:45;14.30;97.00
23591;DHT22;11973;52.098;7.582;2023-05-07T04:45:11;14.30;97.10
23591;DHT22;11973;52.098;7.582;2023-05-07T04:47:40;14.30;97.40
23591;DHT22;11973;52.098;7.582;2023-05-07T04:50:09;14.30;97.00
23591;DHT22;11973;52.098;7.582;2023-05-07T04:52:35;14.30;97.10
23591;DHT22;11973;52.098;7.582;2023-05-07T04:55:02;14.30;97.10
23591;DHT22;11973;52.098;7.582;2023-05-07T04:57:34;14.40;97.10
23591;DHT22;11973;52.098;7.582;2023-05-07T04:59:59;14.40;97.10
23591;DHT22;11973;52.098;7.582;2023-05-07T05:02:34;14.40;97.10
23591;DHT22;11973;52.098;7.582;2023-05-07T05:05:04;14.40;97.10
23591;DHT22;11973;52.098;7.582;2023-05-07T05:07:30;14.40;97.10
23591;DHT22;11973;52.098;7.582;2023-05-07T05:09:56;14.40;97.10
23591;DHT22;11973;52.098;7.582;2023-05-07T05:12:23;14.50;97.10
23591;DHT22;11973;52.098;7.582;2023-05-07T05:14:49;14.50;97.10
23591;DHT22;11973;52.098;7.582;2023-05-07T05:17:15;14.50;97.10
23591;DHT22;11973;52.098;7.582;2023-05-07T05:19:41;14.50;97.10
23591;DHT22;11973;52.098;7.582;2023-05-07T05:22:06;14.60;97.50
23591;DHT22;11973;52.098;7.582;2023-05-07T05:24:32;14.60;97.10
23591;DHT22;11973;52.098;7.582;2023-05-07T05:26:58;14.70;97.20
23591;DHT22;11973;52.098;7.582;2023-05-07T05:29:30;14.70;97.30
23591;DHT22;11973;52.098;7.582;2023-05-07T05:31:57;14.80;97.30
23591;DHT22;11973;52.098;7.582;2023-05-07T05:34:24;14.80;97.30
23591;DHT22;11973;52.098;7.582;2023-05-07T05:36:53;14.90;97.20
23591;DHT22;11973;52.098;7.582;2023-05-07T05:39:19;15.00;97.30
23591;DHT22;11973;52.098;7.582;2023-05-07T05:41:47;15.10;97.30
23591;DHT22;11973;52.098;7.582;2023-05-07T05:44:13;15.10;97.30
23591;DHT22;11973;52.098;7.582;2023-05-07T05:46:41;15.10;97.20
23591;DHT22;11973;52.098;7.582;2023-05-07T05:49:07;15.20;97.20
23591;DHT22;11973;52.098;7.582;2023-05-07T05:51:33;15.20;97.10
23591;DHT22;11973;52.098;7.582;2023-05-07T05:53:59;15.20;97.00
23591;DHT22;11973;52.098;7.582;2023-05-07T05:56:25;15.20;97.10
23591;DHT22;11973;52.098;7.582;2023-05-07T05:58:51;15.30;97.10
23591;DHT22;11973;52.098;7.582;2023-05-07T06:01:18;15.30;97.00
23591;DHT22;11973;52.098;7.582;2023-05-07T06:03:44;15.40;97.10
23591;DHT22;11973;52.098;7.582;2023-05-07T06:06:13;15.40;97.00
23591;DHT22;11973;52.098;7.582;2023-05-07T06:08:42;15.40;97.00
23591;DHT22;11973;52.098;7.582;2023-05-07T06:11:10;15.40;96.90
23591;DHT22;11973;52.098;7.582;2023-05-07T06:13:38;15.50;97.00
23591;DHT22;11973;52.098;7.582;2023-05-07T06:16:04;15.50;97.00
23591;DHT22;11973;52.098;7.582;2023-05-07T06:18:30;15.60;97.00
23591;DHT22;11973;52.098;7.582;2023-05-07T06:20:57;15.70;97.00
23591;DHT22;11973;52.098;7.582;2023-05-07T06:23:26;15.70;96.90
23591;DHT22;11973;52.098;7.582;2023-05-07T06:25:52;15.80;97.00
23591;DHT22;11973;52.098;7.582;2023-05-07T06:28:21;15.80;96.90
23591;DHT22;11973;52.098;7.582;2023-05-07T06:30:48;15.90;96.90
23591;DHT22;11973;52.098;7.582;2023-05-07T06:33:16;15.90;96.80
23591;DHT22;11973;52.098;7.582;2023-05-07T06:35:42;16.00;96.80
23591;DHT22;11973;52.098;7.582;2023-05-07T06:38:08;16.00;96.80
23591;DHT22;11973;52.098;7.582;2023-05-07T06:40:34;16.10;96.90
23591;DHT22;11973;52.098;7.582;2023-05-07T06:43:00;16.20;96.80
23591;DHT22;11973;52.098;7.582;2023-05-07T06:45:39;16.30;96.90
23591;DHT22;11973;52.098;7.582;2023-05-07T06:48:07;16.30;96.80
23591;DHT22;11973;52.098;7.582;2023-05-07T06:50:42;16.40;96.70
23591;DHT22;11973;52.098;7.582;2023-05-07T06:53:08;16.40;96.70
23591;DHT22;11973;52.098;7.582;2023-05-07T06:55:34;16.50;96.70
23591;DHT22;11973;52.098;7.582;2023-05-07T06:58:00;16.50;96.70
23591;DHT22;11973;52.098;7.582;2023-05-07T07:00:27;16.60;96.70
23591;DHT22;11973;52.098;7.582;2023-05-07T07:02:55;16.70;96.70
23591;DHT22;11973;52.098;7.582;2023-05-07T07:05:24;16.80;96.60
23591;DHT22;11973;52.098;7.582;2023-05-07T07:07:50;16.90;96.50
23591;DHT22;11973;52.098;7.582;2023-05-07T07:10:22;16.90;96.40
23591;DHT22;11973;52.098;7.582;2023-05-07T07:12:49;17.00;96.50
23591;DHT22;11973;52.098;7.582;2023-05-07T07:15:15;17.20;96.60
23591;DHT22;11973;52.098;7.582;2023-05-07T07:17:42;17.30;96.80
23591;DHT22;11973;52.098;7.582;2023-05-07T07:20:08;17.40;96.40
23591;DHT22;11973;52.098;7.582;2023-05-07T07:22:34;17.50;96.30
23591;DHT22;11973;52.098;7.582;2023-05-07T07:25:00;17.50;96.30
23591;DHT22;11973;52.098;7.582;2023-05-07T07:27:26;17.60;96.20
23591;DHT22;11973;52.098;7.582;2023-05-07T07:29:51;17.60;96.10
23591;DHT22;11973;52.098;7.582;2023-05-07T07:32:18;17.60;95.90
23591;DHT22;11973;52.098;7.582;2023-05-07T07:34:45;17.50;95.80
23591;DHT22;11973;52.098;7.582;2023-05-07T07:37:11;17.60;95.90
23591;DHT22;11973;52.098;7.582;2023-05-07T07:39:37;17.60;95.90
23591;DHT22;11973;52.098;7.582;2023-05-07T07:42:05;17.60;95.80
23591;DHT22;11973;52.098;7.582;2023-05-07T07:44:31;17.60;95.80
23591;DHT22;11973;52.098;7.582;2023-05-07T07:47:01;17.60;95.70
23591;DHT22;11973;52.098;7.582;2023-05-07T07:49:28;17.60;95.70
23591;DHT22;11973;52.098;7.582;2023-05-07T07:51:55;17.60;95.70
23591;DHT22;11973;52.098;7.582;2023-05-07T07:54:22;17.60;95.60
23591;DHT22;11973;52.098;7.582;2023-05-07T07:56:48;17.60;95.60
23591;DHT22;11973;52.098;7.582;2023-05-07T07:59:14;17.70;95.60
23591;DHT22;11973;52.098;7.582;2023-05-07T08:01:43;17.70;95.50
23591;DHT22;11973;52.098;7.582;2023-05-07T08:04:09;17.70;95.50
23591;DHT22;11973;52.098;7.582;2023-05-07T08:06:38;17.80;95.50
23591;DHT22;11973;52.098;7.582;2023-05-07T08:09:05;17.90;95.50
23591;DHT22;11973;52.098;7.582;2023-05-07T08:11:31;17.90;95.50
23591;DHT22;11973;52.098;7.582;2023-05-07T08:13:57;18.00;95.40
23591;DHT22;11973;52.098;7.582;2023-05-07T08:16:24;18.00;95.30
23591;DHT22;11973;52.098;7.582;2023-05-07T08:18:51;18.10;95.30
23591;DHT22;11973;52.098;7.582;2023-05-07T08:21:17;18.10;95.30
23591;DHT22;11973;52.098;7.582;2023-05-07T08:23:43;18.20;95.30
23591;DHT22;11973;52.098;7.582;2023-05-07T08:26:09;18.20;95.10
23591;DHT22;11973;52.098;7.582;2023-05-07T08:28:35;18.20;95.00
23591;DHT22;11973;52.098;7.582;2023-05-07T08:31:01;18.30;95.00
23591;DHT22;11973;52.098;7.582;2023-05-07T08:33:30;18.30;94.90
23591;DHT22;11973;52.098;7.582;2023-05-07T08:35:56;18.30;94.80
23591;DHT22;11973;52.098;7.582;2023-05-07T08:38:22;18.30;95.00
23591;DHT22;11973;52.098;7.582;2023-05-07T08:40:48;18.40;94.60
23591;DHT22;11973;52.098;7.582;2023-05-07T08:43:18;18.50;94.70
23591;DHT22;11973;52.098;7.582;2023-05-07T08:45:45;18.60;94.70
23591;DHT22;11973;52.098;7.582;2023-05-07T08:48:17;18.70;94.70
23591;DHT22;11973;52.098;7.582;2023-05-07T08:50:53;18.90;94.70
23591;DHT22;11973;52.098;7.582;2023-05-07T08:53:20;19.00;94.70
23591;DHT22;11973;52.098;7.582;2023-05-07T08:55:47;19.00;95.00
23591;DHT22;11973;52.098;7.582;2023-05-07T08:58:13;19.20;94.70
23591;DHT22;11973;52.098;7.582;2023-05-07T09:00:40;19.30;94.70
23591;DHT22;11973;52.098;7.582;2023-05-07T09:03:07;19.40;94.60
23591;DHT22;11973;52.098;7.582;2023-05-07T09:05:33;19.50;94.50
23591;DHT22;11973;52.098;7.582;2023-05-07T09:08:01;19.50;94.40
23591;DHT22;11973;52.098;7.582;2023-05-07T09:10:29;19.60;94.40
23591;DHT22;11973;52.098;7.582;2023-05-07T09:12:55;19.70;94.40
23591;DHT22;11973;52.098;7.582;2023-05-07T09:15:21;19.80;94.40
23591;DHT22;11973;52.098;7.582;2023-05-07T09:17:47;19.90;94.30
23591;DHT22;11973;52.098;7.582;2023-05-07T09:20:13;19.90;94.30
23591;DHT22;11973;52.098;7.582;2023-05-07T09:22:39;20.00;94.20
23591;DHT22;11973;52.098;7.582;2023-05-07T09:25:09;20.00;94.10
23591;DHT22;11973;52.098;7.582;2023-05-07T09:27:37;20.10;94.00
23591;DHT22;11973;52.098;7.582;2023-05-07T09:30:07;20.10;93.80
23591;DHT22;11973;52.098;7.582;2023-05-07T09:32:35;20.10;93.70
23591;DHT22;11973;52.098;7.582;2023-05-07T09:35:04;20.10;93.90
23591;DHT22;11973;52.098;7.582;2023-05-07T09:37:31;20.00;93.50
23591;DHT22;11973;52.098;7.582;2023-05-07T09:39:58;19.90;93.40
23591;DHT22;11973;52.098;7.582;2023-05-07T09:42:25;19.90;93.40
23591;DHT22;11973;52.098;7.582;2023-05-07T09:44:59;19.90;93.30
23591;DHT22;11973;52.098;7.582;2023-05-07T09:47:32;19.80;93.10
23591;DHT22;11973;52.098;7.582;2023-05-07T09:49:59;19.80;93.10
23591;DHT22;11973;52.098;7.582;2023-05-07T09:52:28;19.80;93.10
23591;DHT22;11973;52.098;7.582;2023-05-07T09:55:00;19.80;93.10
23591;DHT22;11973;52.098;7.582;2023-05-07T09:57:29;19.90;93.20
23591;DHT22;11973;52.098;7.582;2023-05-07T10:00:02;19.90;93.20
23591;DHT22;11973;52.098;7.582;2023-05-07T10:02:35;20.00;93.20
23591;DHT22;11973;52.098;7.582;2023-05-07T10:05:02;20.10;93.20
23591;DHT22;11973;52.098;7.582;2023-05-07T10:07:31;20.10;93.10
23591;DHT22;11973;52.098;7.582;2023-05-07T10:10:03;20.20;93.10
23591;DHT22;11973;52.098;7.582;2023-05-07T10:12:35;20.30;93.10
23591;DHT22;11973;52.098;7.582;2023-05-07T10:15:10;20.30;92.90
23591;DHT22;11973;52.098;7.582;2023-05-07T10:17:41;20.30;92.80
23591;DHT22;11973;52.098;7.582;2023-05-07T10:20:08;20.30;92.70
23591;DHT22;11973;52.098;7.582;2023-05-07T10:22:47;20.40;92.80
23591;DHT22;11973;52.098;7.582;2023-05-07T10:25:26;20.40;92.60
23591;DHT22;11973;52.098;7.582;2023-05-07T10:27:56;20.40;92.60
23591;DHT22;11973;52.098;7.582;2023-05-07T10:31:01;20.40;92.60
23591;DHT22;11973;52.098;7.582;2023-05-07T10:33:36;20.40;92.50
23591;DHT22;11973;52.098;7.582;2023-05-07T10:36:03;20.50;92.70
23591;DHT22;11973;52.098;7.582;2023-05-07T10:38:31;20.60;92.60
23591;DHT22;11973;52.098;7.582;2023-05-07T10:40:59;20.60;92.50
23591;DHT22;11973;52.098;7.582;2023-05-07T10:43:25;20.70;92.50
23591;DHT22;11973;52.098;7.582;2023-05-07T10:46:18;20.70;92.50
23591;DHT22;11973;52.098;7.582;2023-05-07T10:51:28;20.80;92.70
23591;DHT22;11973;52.098;7.582;2023-05-07T10:56:41;21.00;92.40
23591;DHT22;11973;52.098;7.582;2023-05-07T11:02:01;21.10;92.20
23591;DHT22;11973;52.098;7.582;2023-05-07T11:04:37;21.20;92.10
23591;DHT22;11973;52.098;7.582;2023-05-07T11:07:25;21.20;92.10
23591;DHT22;11973;52.098;7.582;2023-05-07T11:15:12;21.50;92.10
23591;DHT22;11973;52.098;7.582;2023-05-07T11:17:54;21.60;92.00
23591;DHT22;11973;52.098;7.582;2023-05-07T11:20:45;21.60;91.90
23591;DHT22;11973;52.098;7.582;2023-05-07T11:26:40;21.80;91.90
23591;DHT22;11973;52.098;7.582;2023-05-07T11:29:21;21.80;92.00
23591;DHT22;11973;52.098;7.582;2023-05-07T11:31:52;21.90;91.90
23591;DHT22;11973;52.098;7.582;2023-05-07T11:34:26;22.00;91.80
23591;DHT22;11973;52.098;7.582;2023-05-07T11:36:54;22.10;91.60
23591;DHT22;11973;52.098;7.582;2023-05-07T11:39:28;22.10;91.60
23591;DHT22;11973;52.098;7.582;2023-05-07T11:41:54;22.20;91.70
23591;DHT22;11973;52.098;7.582;2023-05-07T11:44:20;22.20;91.30
23591;DHT22;11973;52.098;7.582;2023-05-07T11:46:46;22.20;91.20
23591;DHT22;11973;52.098;7.582;2023-05-07T11:49:12;22.30;91.20
23591;DHT22;11973;52.098;7.582;2023-05-07T11:51:39;22.30;91.10
23591;DHT22;11973;52.098;7.582;2023-05-07T11:54:05;22.40;91.10
23591;DHT22;11973;52.098;7.582;2023-05-07T11:56:37;22.60;91.10
23591;DHT22;11973;52.098;7.582;2023-05-07T11:59:03;22.70;91.00
23591;DHT22;11973;52.098;7.582;2023-05-07T12:01:29;22.80;90.90
23591;DHT22;11973;52.098;7.582;2023-05-07T12:03:54;22.90;90.80
23591;DHT22;11973;52.098;7.582;2023-05-07T12:06:20;22.90;90.60
23591;DHT22;11973;52.098;7.582;2023-05-07T12:08:46;23.00;90.60
23591;DHT22;11973;52.098;7.582;2023-05-07T12:11:22;23.10;90.50
23591;DHT22;11973;52.098;7.582;2023-05-07T12:13:48;23.10;90.30
23591;DHT22;11973;52.098;7.582;2023-05-07T12:16:15;23.10;90.30
23591;DHT22;11973;52.098;7.582;2023-05-07T12:18:41;23.10;90.10
23591;DHT22;11973;52.098;7.582;2023-05-07T12:21:07;23.20;90.10
23591;DHT22;11973;52.098;7.582;2023-05-07T12:23:35;23.20;90.00
23591;DHT22;11973;52.098;7.582;2023-05-07T12:26:01;23.20;90.00
23591;DHT22;11973;52.098;7.582;2023-05-07T12:28:29;23.30;90.00
23591;DHT22;11973;52.098;7.582;2023-05-07T12:30:56;23.40;89.70
23591;DHT22;11973;52.098;7.582;2023-05-07T12:33:26;23.50;89.70
23591;DHT22;11973;52.098;7.582;2023-05-07T12:35:55;23.60;89.40
23591;DHT22;11973;52.098;7.582;2023-05-07T12:38:22;23.80;89.30
23591;DHT22;11973;52.098;7.582;2023-05-07T12:40:50;23.90;89.10
23591;DHT22;11973;52.098;7.582;2023-05-07T12:43:26;24.00;88.80
23591;DHT22;11973;52.098;7.582;2023-05-07T12:45:57;24.10;88.50
23591;DHT22;11973;52.098;7.582;2023-05-07T12:48:25;24.20;88.40
23591;DHT22;11973;52.098;7.582;2023-05-07T12:50:56;24.40;88.60
23591;DHT22;11973;52.098;7.582;2023-05-07T12:53:24;24.50;87.90
23591;DHT22;11973;52.098;7.582;2023-05-07T12:55:53;24.60;87.70
23591;DHT22;11973;52.098;7.582;2023-05-07T12:58:20;24.70;87.30
23591;DHT22;11973;52.098;7.582;2023-05-07T13:00:50;24.70;87.10
23591;DHT22;11973;52.098;7.582;2023-05-07T13:05:54;24.80;87.20
23591;DHT22;11973;52.098;7.582;2023-05-07T13:08:35;24.90;86.70
23591;DHT22;11973;52.098;7.582;2023-05-07T13:11:03;25.10;86.10
23591;DHT22;11973;52.098;7.582;2023-05-07T13:13:33;25.20;86.20
23591;DHT22;11973;52.098;7.582;2023-05-07T13:16:00;25.30;85.90
23591;DHT22;11973;52.098;7.582;2023-05-07T13:18:26;25.40;85.70
23591;DHT22;11973;52.098;7.582;2023-05-07T13:20:53;25.50;85.40
23591;DHT22;11973;52.098;7.582;2023-05-07T13:23:19;25.60;85.00
23591;DHT22;11973;52.098;7.582;2023-05-07T13:25:45;25.60;84.30
23591;DHT22;11973;52.098;7.582;2023-05-07T13:28:11;25.70;84.20
23591;DHT22;11973;52.098;7.582;2023-05-07T13:30:37;25.80;83.90
23591;DHT22;11973;52.098;7.582;2023-05-07T13:33:03;25.90;83.80
23591;DHT22;11973;52.098;7.582;2023-05-07T13:35:29;26.00;83.30
23591;DHT22;11973;52.098;7.582;2023-05-07T13:37:55;26.10;83.20
23591;DHT22;11973;52.098;7.582;2023-05-07T13:40:22;26.20;82.90
23591;DHT22;11973;52.098;7.582;2023-05-07T13:42:48;26.30;82.60
23591;DHT22;11973;52.098;7.582;2023-05-07T13:45:14;26.40;82.20
23591;DHT22;11973;52.098;7.582;2023-05-07T13:47:41;26.40;81.90
23591;DHT22;11973;52.098;7.582;2023-05-07T13:50:08;26.40;81.50
23591;DHT22;11973;52.098;7.582;2023-05-07T13:52:34;26.40;81.40
23591;DHT22;11973;52.098;7.582;2023-05-07T13:55:01;26.50;81.20
23591;DHT22;11973;52.098;7.582;2023-05-07T13:57:27;26.50;81.40
23591;DHT22;11973;52.098;7.582;2023-05-07T13:59:52;26.50;80.30
23591;DHT22;11973;52.098;7.582;2023-05-07T14:02:18;26.60;80.10
23591;DHT22;11973;52.098;7.582;2023-05-07T14:04:44;26.60;79.90
23591;DHT22;11973;52.098;7.582;2023-05-07T14:07:10;26.80;80.20
23591;DHT22;11973;52.098;7.582;2023-05-07T14:09:36;27.00;80.20
23591;DHT22;11973;52.098;7.582;2023-05-07T14:12:02;27.20;80.00
23591;DHT22;11973;52.098;7.582;2023-05-07T14:14:27;27.40;79.80
23591;DHT22;11973;52.098;7.582;2023-05-07T14:16:53;27.60;79.00
23591;DHT22;11973;52.098;7.582;2023-05-07T14:19:19;27.60;78.60
23591;DHT22;11973;52.098;7.582;2023-05-07T14:21:45;27.70;78.30
23591;DHT22;11973;52.098;7.582;2023-05-07T14:24:10;27.80;78.00
23591;DHT22;11973;52.098;7.582;2023-05-07T14:26:36;27.80;77.40
23591;DHT22;11973;52.098;7.582;2023-05-07T14:29:02;27.80;76.80
23591;DHT22;11973;52.098;7.582;2023-05-07T14:31:28;27.50;76.20
23591;DHT22;11973;52.098;7.582;2023-05-07T14:33:54;27.40;75.90
23591;DHT22;11973;52.098;7.582;2023-05-07T14:36:20;27.20;75.70
23591;DHT22;11973;52.098;7.582;2023-05-07T14:38:47;27.00;75.50
23591;DHT22;11973;52.098;7.582;2023-05-07T14:41:13;26.80;75.30
23591;DHT22;11973;52.098;7.582;2023-05-07T14:43:38;26.60;75.20
23591;DHT22;11973;52.098;7.582;2023-05-07T14:46:04;26.40;74.70
23591;DHT22;11973;52.098;7.582;2023-05-07T14:48:30;26.30;74.70
23591;DHT22;11973;52.098;7.582;2023-05-07T14:50:56;26.10;74.70
23591;DHT22;11973;52.098;7.582;2023-05-07T14:53:22;26.00;74.60
23591;DHT22;11973;52.098;7.582;2023-05-07T14:55:48;25.80;74.40
23591;DHT22;11973;52.098;7.582;2023-05-07T14:58:14;25.60;74.20
23591;DHT22;11973;52.098;7.582;2023-05-07T15:00:40;25.50;74.10
23591;DHT22;11973;52.098;7.582;2023-05-07T15:03:08;25.40;74.00
23591;DHT22;11973;52.098;7.582;2023-05-07T15:05:35;25.20;74.00
23591;DHT22;11973;52.098;7.582;2023-05-07T15:08:01;25.10;73.80
23591;DHT22;11973;52.098;7.582;2023-05-07T15:10:27;24.90;73.70
23591;DHT22;11973;52.098;7.582;2023-05-07T15:12:53;24.80;73.80
23591;DHT22;11973;52.098;7.582;2023-05-07T15:15:19;24.70;73.80
23591;DHT22;11973;52.098;7.582;2023-05-07T15:17:45;24.60;73.70
23591;DHT22;11973;52.098;7.582;2023-05-07T15:20:10;24.50;73.70
23591;DHT22;11973;52.098;7.582;2023-05-07T15:22:36;24.40;73.50
23591;DHT22;11973;52.098;7.582;2023-05-07T15:25:03;24.30;73.60
23591;DHT22;11973;52.098;7.582;2023-05-07T15:27:30;24.20;73.60
23591;DHT22;11973;52.098;7.582;2023-05-07T15:29:56;24.10;73.60
23591;DHT22;11973;52.098;7.582;2023-05-07T15:32:22;24.00;73.40
23591;DHT22;11973;52.098;7.582;2023-05-07T15:34:48;23.90;73.50
23591;DHT22;11973;52.098;7.582;2023-05-07T15:37:14;23.80;73.60
23591;DHT22;11973;52.098;7.582;2023-05-07T15:39:39;23.70;73.60
23591;DHT22;11973;52.098;7.582;2023-05-07T15:42:05;23.70;73.70
23591;DHT22;11973;52.098;7.582;2023-05-07T15:44:31;23.60;73.70
23591;DHT22;11973;52.098;7.582;2023-05-07T15:47:00;23.60;74.60
23591;DHT22;11973;52.098;7.582;2023-05-07T15:49:26;23.50;73.60
23591;DHT22;11973;52.098;7.582;2023-05-07T15:51:52;23.40;73.50
23591;DHT22;11973;52.098;7.582;2023-05-07T15:54:20;23.40;73.70
23591;DHT22;11973;52.098;7.582;2023-05-07T15:56:48;23.30;73.60
23591;DHT22;11973;52.098;7.582;2023-05-07T15:59:14;23.20;73.60
23591;DHT22;11973;52.098;7.582;2023-05-07T16:01:40;23.20;73.70
23591;DHT22;11973;52.098;7.582;2023-05-07T16:04:07;23.10;73.60
23591;DHT22;11973;52.098;7.582;2023-05-07T16:06:33;23.00;73.50
23591;DHT22;11973;52.098;7.582;2023-05-07T16:08:59;22.90;73.70
23591;DHT22;11973;52.098;7.582;2023-05-07T16:11:26;22.80;73.70
23591;DHT22;11973;52.098;7.582;2023-05-07T16:13:54;22.70;73.90
23591;DHT22;11973;52.098;7.582;2023-05-07T16:16:20;22.70;73.90
23591;DHT22;11973;52.098;7.582;2023-05-07T16:18:46;22.60;73.80
23591;DHT22;11973;52.098;7.582;2023-05-07T16:21:12;22.50;73.90
23591;DHT22;11973;52.098;7.582;2023-05-07T16:23:38;22.50;74.00
23591;DHT22;11973;52.098;7.582;2023-05-07T16:26:03;22.40;74.00
23591;DHT22;11973;52.098;7.582;2023-05-07T16:28:29;22.30;74.00
23591;DHT22;11973;52.098;7.582;2023-05-07T16:30:55;22.30;74.00
23591;DHT22;11973;52.098;7.582;2023-05-07T16:33:21;22.30;74.00
23591;DHT22;11973;52.098;7.582;2023-05-07T16:35:51;22.20;74.80
23591;DHT22;11973;52.098;7.582;2023-05-07T16:38:17;22.20;74.20
23591;DHT22;11973;52.098;7.582;2023-05-07T16:40:42;22.10;74.20
23591;DHT22;11973;52.098;7.582;2023-05-07T16:43:08;22.10;74.30
23591;DHT22;11973;52.098;7.582;2023-05-07T16:45:35;22.00;74.20
23591;DHT22;11973;52.098;7.582;2023-05-07T16:48:00;22.00;74.40
23591;DHT22;11973;52.098;7.582;2023-05-07T16:50:27;22.00;74.40
23591;DHT22;11973;52.098;7.582;2023-05-07T16:52:53;21.90;74.20
23591;DHT22;11973;52.098;7.582;2023-05-07T16:55:19;21.90;74.30
23591;DHT22;11973;52.098;7.582;2023-05-07T16:57:45;21.80;74.30
23591;DHT22;11973;52.098;7.582;2023-05-07T17:00:11;21.80;74.40
23591;DHT22;11973;52.098;7.582;2023-05-07T17:02:37;21.70;74.30
23591;DHT22;11973;52.098;7.582;2023-05-07T17:05:03;21.60;74.30
23591;DHT22;11973;52.098;7.582;2023-05-07T17:07:32;21.60;74.40
23591;DHT22;11973;52.098;7.582;2023-05-07T17:09:58;21.50;74.30
23591;DHT22;11973;52.098;7.582;2023-05-07T17:12:24;21.40;74.30
23591;DHT22;11973;52.098;7.582;2023-05-07T17:14:51;21.40;74.40
23591;DHT22;11973;52.098;7.582;2023-05-07T17:17:17;21.30;74.40
23591;DHT22;11973;52.098;7.582;2023-05-07T17:19:43;21.20;74.20
23591;DHT22;11973;52.098;7.582;2023-05-07T17:22:08;21.10;74.30
23591;DHT22;11973;52.098;7.582;2023-05-07T17:24:34;21.10;74.40
23591;DHT22;11973;52.098;7.582;2023-05-07T17:27:01;21.00;74.40
23591;DHT22;11973;52.098;7.582;2023-05-07T17:29:28;21.00;75.20
23591;DHT22;11973;52.098;7.582;2023-05-07T17:31:54;20.90;74.40
23591;DHT22;11973;52.098;7.582;2023-05-07T17:34:21;20.90;74.60
23591;DHT22;11973;52.098;7.582;2023-05-07T17:36:47;20.80;74.50
23591;DHT22;11973;52.098;7.582;2023-05-07T17:39:12;20.80;74.70
23591;DHT22;11973;52.098;7.582;2023-05-07T17:41:38;20.70;74.60
23591;DHT22;11973;52.098;7.582;2023-05-07T17:44:04;20.70;74.80
23591;DHT22;11973;52.098;7.582;2023-05-07T17:46:34;20.70;74.80
23591;DHT22;11973;52.098;7.582;2023-05-07T17:49:00;20.60;74.80
23591;DHT22;11973;52.098;7.582;2023-05-07T17:51:26;20.50;74.90
23591;DHT22;11973;52.098;7.582;2023-05-07T17:53:54;20.50;74.90
23591;DHT22;11973;52.098;7.582;2023-05-07T17:56:20;20.40;74.90
23591;DHT22;11973;52.098;7.582;2023-05-07T17:58:47;20.40;74.90
23591;DHT22;11973;52.098;7.582;2023-05-07T18:01:13;20.30;74.90
23591;DHT22;11973;52.098;7.582;2023-05-07T18:03:38;20.20;74.90
23591;DHT22;11973;52.098;7.582;2023-05-07T18:06:05;20.20;75.00
23591;DHT22;11973;52.098;7.582;2023-05-07T18:08:30;20.10;74.90
23591;DHT22;11973;52.098;7.582;2023-05-07T18:10:57;20.00;74.90
23591;DHT22;11973;52.098;7.582;2023-05-07T18:13:23;20.00;75.00
23591;DHT22;11973;52.098;7.582;2023-05-07T18:15:48;19.90;75.00
23591;DHT22;11973;52.098;7.582;2023-05-07T18:18:14;19.80;74.90
23591;DHT22;11973;52.098;7.582;2023-05-07T18:20:40;19.70;74.90
23591;DHT22;11973;52.098;7.582;2023-05-07T18:23:06;19.70;75.00
23591;DHT22;11973;52.098;7.582;2023-05-07T18:25:34;19.60;75.10
23591;DHT22;11973;52.098;7.582;2023-05-07T18:28:01;19.60;75.10
23591;DHT22;11973;52.098;7.582;2023-05-07T18:30:27;19.50;75.10
23591;DHT22;11973;52.098;7.582;2023-05-07T18:32:53;19.50;75.20
23591;DHT22;11973;52.098;7.582;2023-05-07T18:35:19;19.40;75.10
23591;DHT22;11973;52.098;7.582;2023-05-07T18:37:45;19.30;75.10
23591;DHT22;11973;52.098;7.582;2023-05-07T18:40:11;19.20;75.10
23591;DHT22;11973;52.098;7.582;2023-05-07T18:42:37;19.20;75.20
23591;DHT22;11973;52.098;7.582;2023-05-07T18:45:04;18.90;75.10
23591;DHT22;11973;52.098;7.582;2023-05-07T18:47:30;19.10;75.40
23591;DHT22;11973;52.098;7.582;2023-05-07T18:49:56;19.10;75.60
23591;DHT22;11973;52.098;7.582;2023-05-07T18:52:22;19.00;75.50
23591;DHT22;11973;52.098;7.582;2023-05-07T18:54:57;19.00;75.60
23591;DHT22;11973;52.098;7.582;2023-05-07T18:57:32;18.90;75.70
23591;DHT22;11973;52.098;7.582;2023-05-07T18:59:58;18.90;75.80
23591;DHT22;11973;52.098;7.582;2023-05-07T19:02:23;18.80;75.90
23591;DHT22;11973;52.098;7.582;2023-05-07T19:04:49;18.80;76.10
23591;DHT22;11973;52.098;7.582;2023-05-07T19:07:15;18.80;76.20
23591;DHT22;11973;52.098;7.582;2023-05-07T19:09:41;18.70;76.20
23591;DHT22;11973;52.098;7.582;2023-05-07T19:12:07;18.70;76.40
23591;DHT22;11973;52.098;7.582;2023-05-07T19:14:33;18.60;76.50
23591;DHT22;11973;52.098;7.582;2023-05-07T19:16:59;18.60;76.70
23591;DHT22;11973;52.098;7.582;2023-05-07T19:19:26;18.60;76.80
23591;DHT22;11973;52.098;7.582;2023-05-07T19:21:52;18.50;77.60
23591;DHT22;11973;52.098;7.582;2023-05-07T19:24:18;18.50;77.10
23591;DHT22;11973;52.098;7.582;2023-05-07T19:26:44;18.40;77.00
23591;DHT22;11973;52.098;7.582;2023-05-07T19:29:10;18.40;78.00
23591;DHT22;11973;52.098;7.582;2023-05-07T19:31:35;18.40;77.40
23591;DHT22;11973;52.098;7.582;2023-05-07T19:34:01;18.30;77.50
23591;DHT22;11973;52.098;7.582;2023-05-07T19:36:27;18.30;77.60
23591;DHT22;11973;52.098;7.582;2023-05-07T19:38:53;18.20;77.60
23591;DHT22;11973;52.098;7.582;2023-05-07T19:41:19;18.20;77.80
23591;DHT22;11973;52.098;7.582;2023-05-07T19:43:47;18.20;77.90
23591;DHT22;11973;52.098;7.582;2023-05-07T19:46:13;18.10;77.90
23591;DHT22;11973;52.098;7.582;2023-05-07T19:48:41;18.10;78.10
23591;DHT22;11973;52.098;7.582;2023-05-07T19:51:07;18.10;78.20